Time;durP1;ratioP1;P1;durP2;ratioP2;P2;SDS_P1;SDS_P2;PMS_P1;PMS_P2;Temp;Humidity;BMP_temperature;BMP_pressure;BME280_temperature;BME280_humidity;BME280_pressure;Samples;Min_cycle;Max_cycle;Signal;HPM_P1;HPM_P2
2023/03/23 00:02:35;;;;;;;2.63;2.40;;;;;;;11.59;100.00;100077.59;10378747;28;20132;-71
2023/03/23 00:07:35;;;;;;;5.95;3.17;;;;;;;11.59;100.00;100069.47;10378193;28;20049;-71
2023/03/23 00:12:36;;;;;;;8.45;3.78;;;;;;;11.71;100.00;100073.09;10378387;28;20038;-70
2023/03/23 00:17:36;;;;;;;7.30;3.95;;;;;;;11.66;100.00;100059.34;10378962;28;20398;-70
2023/03/23 00:22:37;;;;;;;4.32;3.95;;;;;;;11.69;100.00;100058.91;10376676;28;20041;-71
2023/03/23 00:27:37;;;;;;;5.18;3.78;;;;;;;11.61;100.00;100041.06;10393465;28;20045;-69
2023/03/23 00:32:38;;;;;;;7.20;4.30;;;;;;;11.55;100.00;100025.69;10377937;28;20041;-70
2023/03/23 00:37:38;;;;;;;5.88;2.78;;;;;;;11.39;100.00;100039.81;10377601;28;20033;-70
2023/03/23 00:42:39;;;;;;;7.20;3.50;;;;;;;11.44;100.00;100034.56;10377082;28;20042;-70
2023/03/23 00:47:41;;;;;;;8.27;4.15;;;;;;;11.49;100.00;100020.34;10377342;28;20061;-70
2023/03/23 00:52:41;;;;;;;3.58;2.35;;;;;;;11.40;100.00;100026.06;10377114;28;20048;-69
2023/03/23 00:57:42;;;;;;;5.65;2.83;;;;;;;11.40;100.00;100034.19;10376889;28;20426;-71
2023/03/23 01:02:44;;;;;;;6.45;3.95;;;;;;;11.56;100.00;100031.94;10376687;28;20041;-70
2023/03/23 01:07:45;;;;;;;4.35;3.67;;;;;;;11.52;100.00;100017.16;10376908;28;20022;-69
2023/03/23 01:12:45;;;;;;;3.67;2.78;;;;;;;11.48;100.00;100007.81;10375159;28;20456;-71
2023/03/23 01:17:46;;;;;;;6.10;4.45;;;;;;;11.48;100.00;100015.97;10375888;28;20053;-70
2023/03/23 01:22:46;;;;;;;5.78;2.92;;;;;;;11.41;100.00;99997.88;10375335;28;20389;-70
2023/03/23 01:27:47;;;;;;;2.67;2.47;;;;;;;11.41;100.00;99989.75;10374606;28;20034;-70
2023/03/23 01:32:47;;;;;;;5.45;3.15;;;;;;;11.43;100.00;99989.53;10373808;28;20046;-71
2023/03/23 01:37:48;;;;;;;12.70;3.95;;;;;;;11.46;100.00;99994.50;10375343;28;20113;-71
2023/03/23 01:42:48;;;;;;;4.15;3.78;;;;;;;11.47;100.00;99989.91;10357629;28;20073;-70
2023/03/23 01:47:50;;;;;;;4.20;3.42;;;;;;;11.52;100.00;99984.63;10374731;28;20048;-71
2023/03/23 01:52:52;;;;;;;3.75;3.40;;;;;;;11.41;100.00;99973.47;10389117;28;20034;-72
2023/03/23 01:57:54;;;;;;;3.15;2.58;;;;;;;11.37;100.00;99969.56;10375690;28;20034;-69
2023/03/23 02:02:54;;;;;;;3.80;2.75;;;;;;;11.31;100.00;99981.31;10373436;28;20041;-70
2023/03/23 02:07:58;;;;;;;3.40;3.17;;;;;;;11.27;100.00;99990.94;10397631;28;20042;-72
2023/03/23 02:12:59;;;;;;;3.97;2.40;;;;;;;11.31;100.00;99981.31;10399290;28;20030;-72
2023/03/23 02:18:12;;;;;;;4.13;2.83;;;;;;;11.37;100.00;99976.88;10401791;28;20054;-72
2023/03/23 02:23:41;;;;;;;4.13;3.72;;;;;;;11.44;100.00;99980.34;10392491;28;20369;-73
2023/03/23 02:29:01;;;;;;;5.80;3.80;;;;;;;11.41;100.00;99978.06;10357038;28;20057;-71
2023/03/23 02:34:06;;;;;;;5.68;3.40;;;;;;;11.43;100.00;99978.69;10371742;28;20103;-71
2023/03/23 02:39:12;;;;;;;6.70;3.45;;;;;;;11.42;100.00;99960.75;10373071;28;20037;-70
2023/03/23 02:44:13;;;;;;;4.55;3.22;;;;;;;11.47;100.00;99979.06;10387930;28;20030;-71
2023/03/23 02:49:15;;;;;;;4.75;2.35;;;;;;;11.47;100.00;99960.09;10388655;28;20040;-71
2023/03/23 02:54:16;;;;;;;4.38;2.50;;;;;;;11.45;100.00;99973.03;10372112;28;20088;-72
2023/03/23 02:59:16;;;;;;;6.28;2.20;;;;;;;11.44;100.00;99974.09;10388377;28;20325;-72
2023/03/23 03:04:17;;;;;;;4.10;1.90;;;;;;;11.36;100.00;99984.19;10377459;28;20389;-72
2023/03/23 03:09:44;;;;;;;1.90;1.80;;;;;;;11.27;100.00;99963.84;10380840;28;20037;-72
2023/03/23 03:14:50;;;;;;;4.07;2.70;;;;;;;11.06;100.00;99977.81;10375994;28;20040;-76
2023/03/23 03:19:58;;;;;;;;;;;;;;;10.90;100.00;99977.34;10383427;28;20092;-77
2023/03/23 03:24:58;;;;;;;2.88;2.50;;;;;;;10.76;100.00;99989.34;10363997;28;20016;-76
2023/03/23 03:29:59;;;;;;;4.10;2.55;;;;;;;10.68;100.00;99986.91;10386316;28;20041;-77
2023/03/23 03:35:01;;;;;;;9.65;3.60;;;;;;;10.66;100.00;99980.91;10380830;28;20465;-78
2023/03/23 03:40:01;;;;;;;6.53;2.58;;;;;;;10.61;100.00;99991.53;10380517;28;20227;-79
2023/03/23 03:45:02;;;;;;;1.58;1.52;;;;;;;10.50;100.00;99994.94;10400569;28;20045;-77
2023/03/23 03:50:02;;;;;;;22.45;3.50;;;;;;;10.41;100.00;99976.28;10379273;28;20045;-78
2023/03/23 03:55:04;;;;;;;5.35;3.10;;;;;;;10.43;100.00;99974.19;10378558;28;20084;-77
2023/03/23 04:00:14;;;;;;;13.30;3.22;;;;;;;10.38;100.00;99997.53;10380552;28;20056;-78
2023/03/23 04:05:14;;;;;;;9.48;3.60;;;;;;;10.35;100.00;100008.81;10378549;28;20100;-77
2023/03/23 04:10:15;;;;;;;6.85;2.85;;;;;;;10.40;100.00;100017.09;10379033;28;20099;-77
2023/03/23 04:15:15;;;;;;;5.60;2.72;;;;;;;10.42;100.00;99999.59;10377828;28;20167;-76
2023/03/23 04:20:17;;;;;;;8.88;3.42;;;;;;;10.37;100.00;100007.53;10379204;28;20049;-76
2023/03/23 04:25:20;;;;;;;5.05;1.70;;;;;;;10.42;100.00;100023.94;10379910;28;20461;-76
2023/03/23 04:30:21;;;;;;;9.73;3.75;;;;;;;10.45;100.00;100026.22;10394482;28;20029;-77
2023/03/23 04:35:25;;;;;;;10.68;4.32;;;;;;;10.45;100.00;100030.81;10396524;28;20147;-78
2023/03/23 04:40:26;;;;;;;7.90;4.10;;;;;;;10.47;100.00;100034.97;10419885;28;20045;-79
2023/03/23 04:45:28;;;;;;;5.20;2.53;;;;;;;10.40;100.00;100036.03;10396186;28;20066;-77
2023/03/23 04:50:30;;;;;;;12.65;3.72;;;;;;;10.38;100.00;100055.19;10362193;28;20481;-78
2023/03/23 04:55:31;;;;;;;17.25;4.72;;;;;;;10.26;100.00;100043.41;10378205;28;20034;-78
2023/03/23 05:00:33;;;;;;;18.75;4.55;;;;;;;10.19;100.00;100040.69;10381969;28;20489;-78
2023/03/23 05:05:34;;;;;;;25.35;5.90;;;;;;;10.21;100.00;100049.44;10389595;28;20038;-78
2023/03/23 05:10:35;;;;;;;9.20;3.88;;;;;;;10.11;100.00;100045.53;10383705;28;20404;-77
2023/03/23 05:15:35;;;;;;;11.90;4.05;;;;;;;10.12;100.00;100045.31;10376882;28;20050;-77
2023/03/23 05:20:35;;;;;;;14.35;3.58;;;;;;;10.12;100.00;100060.72;10375925;28;20049;-77
2023/03/23 05:25:39;;;;;;;5.78;3.58;;;;;;;10.19;100.00;100066.94;10375014;28;20129;-77
2023/03/23 05:30:40;;;;;;;17.52;3.83;;;;;;;10.21;100.00;100078.34;10376651;28;20464;-77
2023/03/23 05:35:41;;;;;;;14.30;4.15;;;;;;;10.19;100.00;100075.88;10359886;28;20113;-77
2023/03/23 05:40:42;;;;;;;16.50;4.32;;;;;;;10.20;100.00;100071.28;10374460;28;20042;-77
2023/03/23 05:45:42;;;;;;;18.58;4.80;;;;;;;10.22;100.00;100083.56;10376666;28;20450;-80
2023/03/23 05:50:43;;;;;;;10.57;4.57;;;;;;;10.23;100.00;100081.69;10375288;28;20030;-80
2023/03/23 05:55:43;;;;;;;12.35;4.78;;;;;;;10.30;100.00;100092.50;10374842;28;20373;-80
2023/03/23 06:00:45;;;;;;;13.55;4.47;;;;;;;10.33;100.00;100094.78;10375941;28;20038;-79
2023/03/23 06:05:45;;;;;;;24.08;5.93;;;;;;;10.35;100.00;100098.94;10391403;28;20034;-82
2023/03/23 06:10:45;;;;;;;12.93;4.18;;;;;;;10.40;100.00;100111.81;10390605;28;20065;-77
2023/03/23 06:15:47;;;;;;;9.25;4.90;;;;;;;10.44;100.00;100118.47;10376321;28;20482;-78
2023/03/23 06:20:47;;;;;;;19.48;4.68;;;;;;;10.36;100.00;100124.13;10326422;28;20068;-77
2023/03/23 06:25:48;;;;;;;16.38;5.60;;;;;;;10.42;100.00;100123.25;10373917;28;20474;-79
2023/03/23 06:30:48;;;;;;;20.13;3.67;;;;;;;10.36;100.00;100127.66;10373206;28;20080;-79
2023/03/23 06:35:49;;;;;;;11.10;4.57;;;;;;;10.29;100.00;100126.84;10372969;28;20125;-77
2023/03/23 06:40:52;;;;;;;18.88;5.55;;;;;;;10.33;100.00;100148.91;10375610;28;20045;-75
2023/03/23 06:45:52;;;;;;;28.35;5.57;;;;;;;10.31;100.00;100153.72;10382011;28;20044;-76
2023/03/23 06:50:53;;;;;;;12.38;4.03;;;;;;;10.33;100.00;100146.19;10380891;28;20034;-78
2023/03/23 06:55:53;;;;;;;16.75;3.53;;;;;;;10.34;100.00;100143.28;10357205;28;20133;-74
2023/03/23 07:00:56;;;;;;;12.43;4.63;;;;;;;10.26;100.00;100162.47;10373696;28;20077;-75
2023/03/23 07:05:58;;;;;;;10.77;3.42;;;;;;;10.30;100.00;100155.56;10371683;28;20513;-74
2023/03/23 07:11:05;;;;;;;25.63;4.13;;;;;;;10.31;100.00;100148.31;10389398;28;20041;-75
2023/03/23 07:16:06;;;;;;;12.07;4.13;;;;;;;10.24;100.00;100159.94;10371210;28;20057;-73
2023/03/23 07:21:06;;;;;;;7.85;3.60;;;;;;;10.83;100.00;100163.44;10372544;28;20359;-73
2023/03/23 07:26:07;;;;;;;8.23;3.20;;;;;;;10.74;100.00;100156.63;10371551;28;20121;-73
2023/03/23 07:31:08;;;;;;;6.22;2.22;;;;;;;10.38;100.00;100166.16;10373773;28;20355;-73
2023/03/23 07:36:09;;;;;;;9.70;4.20;;;;;;;10.62;100.00;100151.06;10371910;28;20037;-72
2023/03/23 07:41:09;;;;;;;18.35;4.85;;;;;;;12.88;100.00;100153.50;10371075;28;20030;-70
2023/03/23 07:46:10;;;;;;;9.90;3.50;;;;;;;13.31;100.00;100157.91;10372008;28;20062;-71
2023/03/23 07:51:10;;;;;;;12.02;2.40;;;;;;;12.54;100.00;100166.72;10375013;28;20109;-72
2023/03/23 07:56:12;;;;;;;10.93;3.70;;;;;;;12.07;100.00;100169.97;10379294;28;20643;-71
2023/03/23 08:01:13;;;;;;;13.38;3.95;;;;;;;13.09;100.00;100171.19;10377903;28;20042;-71
2023/03/23 08:06:15;;;;;;;8.38;3.83;;;;;;;13.97;100.00;100178.53;10378501;28;20374;-71
2023/03/23 08:11:15;;;;;;;5.35;3.35;;;;;;;13.38;100.00;100189.38;10378280;28;20049;-70
2023/03/23 08:16:16;;;;;;;10.75;5.40;;;;;;;12.70;100.00;100197.84;10378617;28;20058;-71
2023/03/23 08:21:16;;;;;;;14.70;3.80;;;;;;;13.10;100.00;100195.41;10378103;28;20045;-70
2023/03/23 08:26:17;;;;;;;14.00;3.28;;;;;;;12.66;100.00;100204.78;10378708;28;20042;-70
2023/03/23 08:31:18;;;;;;;7.47;3.78;;;;;;;12.92;100.00;100212.63;10377718;28;20426;-71
2023/03/23 08:36:18;;;;;;;11.38;3.60;;;;;;;13.95;100.00;100207.91;10377268;28;20056;-70
2023/03/23 08:41:19;;;;;;;6.57;3.47;;;;;;;13.95;100.00;100225.06;10378060;28;20034;-70
2023/03/23 08:46:19;;;;;;;22.05;6.20;;;;;;;14.39;100.00;100225.50;10391973;28;20042;-70
2023/03/23 08:51:20;;;;;;;22.35;4.55;;;;;;;14.17;100.00;100214.41;10375650;28;20038;-70
2023/03/23 08:56:20;;;;;;;5.40;2.95;;;;;;;14.84;100.00;100216.66;10376249;28;20030;-69
2023/03/23 09:01:21;;;;;;;11.88;3.83;;;;;;;15.57;100.00;100220.44;10375107;28;20038;-72
2023/03/23 09:06:22;;;;;;;14.57;4.75;;;;;;;15.58;100.00;100222.09;10376029;28;20121;-70
2023/03/23 09:11:22;;;;;;;19.02;4.43;;;;;;;14.96;100.00;100215.78;10374762;28;20042;-70
2023/03/23 09:16:22;;;;;;;11.50;4.30;;;;;;;14.81;100.00;100216.31;10357934;28;20068;-70
2023/03/23 09:21:24;;;;;;;23.95;5.22;;;;;;;15.18;100.00;100227.66;10375380;28;20038;-69
2023/03/23 09:26:26;;;;;;;12.85;4.03;;;;;;;15.04;100.00;100237.22;10374251;28;20409;-70
2023/03/23 09:31:27;;;;;;;10.00;4.78;;;;;;;15.82;100.00;100213.75;10375816;28;20034;-71
2023/03/23 09:36:31;;;;;;;9.98;4.72;;;;;;;16.43;100.00;100220.13;10391511;28;20038;-71
2023/03/23 09:41:45;;;;;;;10.90;4.72;;;;;;;16.70;100.00;100231.13;10391355;28;20462;-70
2023/03/23 09:46:59;;;;;;;22.38;6.03;;;;;;;16.16;100.00;100244.59;10379772;28;20076;-70
2023/03/23 09:52:05;;;;;;;11.93;4.18;;;;;;;16.11;100.00;100246.44;10392021;28;20476;-71
2023/03/23 09:57:37;;;;;;;11.90;5.00;;;;;;;16.07;100.00;100264.41;10396295;28;20347;-70
2023/03/23 10:03:11;;;;;;;11.85;5.95;;;;;;;15.93;100.00;100262.00;10376038;28;20030;-71
2023/03/23 10:08:13;;;;;;;17.00;3.97;;;;;;;15.39;100.00;100268.97;10369354;28;20520;-71
2023/03/23 10:13:24;;;;;;;16.10;5.18;;;;;;;15.43;100.00;100281.84;10372741;28;20339;-71
2023/03/23 10:19:02;;;;;;;17.95;5.43;;;;;;;16.12;100.00;100283.63;10372827;28;20096;-71
2023/03/23 10:24:03;;;;;;;;;;;;;;;16.45;100.00;100269.06;10373064;28;20576;-69
2023/03/23 10:29:14;;;;;;;14.63;4.72;;;;;;;16.82;100.00;100277.53;10372598;28;19920;-71
2023/03/23 10:34:32;;;;;;;9.82;5.05;;;;;;;17.75;100.00;100266.47;10373602;28;20029;-70
2023/03/23 10:39:43;;;;;;;24.00;5.65;;;;;;;17.76;100.00;100268.13;10373365;28;20026;-71
2023/03/23 10:44:44;;;;;;;16.67;3.17;;;;;;;16.36;100.00;100282.31;10372289;28;20034;-72
2023/03/23 10:49:53;;;;;;;13.50;4.28;;;;;;;17.05;100.00;100278.34;10371649;28;20030;-70
2023/03/23 10:55:03;;;;;;;15.52;6.53;;;;;;;17.67;100.00;100262.28;10356003;28;20076;-72
2023/03/23 11:00:08;;;;;;;22.13;5.53;;;;;;;18.52;100.00;100267.88;10387632;28;20030;-72
2023/03/23 11:05:36;;;;;;;15.77;4.03;;;;;;;18.82;100.00;100269.16;10371405;28;20073;-72
2023/03/23 11:10:38;;;;;;;13.48;5.32;;;;;;;18.20;100.00;100267.97;10352274;28;20042;-71
2023/03/23 11:15:40;;;;;;;13.75;5.10;;;;;;;17.70;100.00;100277.38;10370928;28;20462;-72
2023/03/23 11:20:41;;;;;;;10.85;3.85;;;;;;;17.28;100.00;100266.28;10373576;28;20419;-71
2023/03/23 11:26:15;;;;;;;13.02;3.22;;;;;;;17.33;100.00;100261.72;10377134;28;20041;-71
2023/03/23 11:31:16;;;;;;;8.20;3.97;;;;;;;16.81;100.00;100267.66;10376564;28;20544;-71
2023/03/23 11:36:16;;;;;;;5.32;2.70;;;;;;;16.63;100.00;100257.03;10379443;28;20080;-72
2023/03/23 11:41:18;;;;;;;9.43;3.33;;;;;;;16.37;100.00;100269.47;10393955;28;20036;-72
2023/03/23 11:46:38;;;;;;;8.65;3.38;;;;;;;16.32;100.00;100262.06;10379164;28;20037;-71
2023/03/23 11:51:58;;;;;;;11.38;4.82;;;;;;;16.06;100.00;100270.94;10378242;28;20034;-72
2023/03/23 11:56:59;;;;;;;9.82;4.05;;;;;;;16.35;100.00;100275.22;10378103;28;20038;-73
2023/03/23 12:02:23;;;;;;;15.60;4.05;;;;;;;16.98;100.00;100267.63;10379673;28;20454;-73
2023/03/23 12:07:36;;;;;;;7.72;2.80;;;;;;;17.33;100.00;100260.88;10377139;28;20478;-71
2023/03/23 12:12:49;;;;;;;7.20;3.35;;;;;;;17.16;100.00;100271.91;10378669;28;20033;-71
2023/03/23 12:18:25;;;;;;;4.45;3.40;;;;;;;16.65;100.00;100273.97;10377995;28;20058;-73
2023/03/23 12:23:34;;;;;;;5.95;3.53;;;;;;;16.22;100.00;100286.50;10390960;28;20505;-72
2023/03/23 12:28:40;;;;;;;9.00;3.67;;;;;;;16.45;100.00;100256.22;10378134;28;20065;-73
2023/03/23 12:34:03;;;;;;;3.67;3.35;;;;;;;16.55;100.00;100252.81;10375977;28;20121;-72
2023/03/23 12:39:22;;;;;;;10.38;3.25;;;;;;;15.84;100.00;100255.31;10375006;28;20065;-73
2023/03/23 12:44:30;;;;;;;6.75;2.53;;;;;;;15.51;100.00;100246.00;10377979;28;20441;-72
2023/03/23 12:50:10;;;;;;;12.98;5.80;;;;;;;16.01;100.00;100260.75;10360103;28;20091;-72
2023/03/23 12:55:18;;;;;;;16.48;5.28;;;;;;;17.12;100.00;100257.91;10377492;28;20029;-72
2023/03/23 13:00:24;;;;;;;5.95;4.10;;;;;;;17.78;100.00;100276.13;10391498;28;20378;-72
2023/03/23 13:05:27;;;;;;;15.10;3.53;;;;;;;18.07;100.00;100269.25;10377171;28;20092;-71
2023/03/23 13:10:41;;;;;;;12.23;4.03;;;;;;;18.20;100.00;100276.19;10393706;28;20040;-72
2023/03/23 13:16:01;;;;;;;11.98;5.47;;;;;;;18.09;100.00;100275.28;10390531;28;20370;-73
2023/03/23 13:21:07;;;;;;;7.95;3.70;;;;;;;18.20;100.00;100273.44;10377163;28;20077;-72
2023/03/23 13:26:23;;;;;;;11.95;4.10;;;;;;;17.58;100.00;100276.72;10375177;28;20079;-73
2023/03/23 13:31:33;;;;;;;10.50;3.73;;;;;;;17.37;100.00;100276.53;10391144;28;20038;-72
2023/03/23 13:36:53;;;;;;;16.35;4.22;;;;;;;18.01;100.00;100281.25;10373840;28;20053;-71
2023/03/23 13:42:09;;;;;;;14.35;3.10;;;;;;;17.58;100.00;100280.31;10375499;28;20113;-71
2023/03/23 13:47:21;;;;;;;17.25;4.15;;;;;;;16.73;100.00;100276.28;10375073;28;20034;-73
2023/03/23 13:52:45;;;;;;;16.88;4.32;;;;;;;16.84;100.00;100263.59;10373964;28;20033;-72
2023/03/23 13:57:57;;;;;;;9.35;4.07;;;;;;;17.13;100.00;100248.66;10376075;28;20026;-72
2023/03/23 14:03:02;;;;;;;3.50;3.20;;;;;;;17.52;100.00;100261.34;10375261;28;20432;-72
2023/03/23 14:08:09;;;;;;;7.55;3.58;;;;;;;17.26;100.00;100247.41;10374599;28;20216;-72
2023/03/23 14:13:21;;;;;;;14.88;3.22;;;;;;;16.83;100.00;100260.03;10374659;28;20034;-73
2023/03/23 14:18:26;;;;;;;10.57;4.30;;;;;;;16.65;100.00;100242.00;10374423;28;20076;-72
2023/03/23 14:23:26;;;;;;;13.48;4.18;;;;;;;16.47;100.00;100218.56;10373468;28;20109;-73
2023/03/23 14:28:27;;;;;;;9.20;5.20;;;;;;;16.40;100.00;100192.47;10390361;28;20120;-71
2023/03/23 14:33:27;;;;;;;15.07;4.22;;;;;;;16.76;100.00;100174.66;10375125;28;20458;-72
2023/03/23 14:38:31;;;;;;;11.75;4.60;;;;;;;16.96;100.00;100185.78;10376703;28;20112;-71
2023/03/23 14:43:34;;;;;;;10.02;4.45;;;;;;;17.33;100.00;100165.94;10383272;28;20048;-71
2023/03/23 14:48:34;;;;;;;15.48;4.18;;;;;;;16.75;100.00;100200.31;10390183;28;20034;-72
2023/03/23 14:53:39;;;;;;;14.07;6.35;;;;;;;16.77;100.00;100197.34;10389617;28;20033;-73
2023/03/23 14:58:46;;;;;;;7.30;3.17;;;;;;;16.18;100.00;100185.09;10374140;28;20481;-73
2023/03/23 15:03:55;;;;;;;7.78;4.15;;;;;;;15.98;100.00;100184.78;10396316;28;20057;-72
2023/03/23 15:08:57;;;;;;;7.68;4.20;;;;;;;16.13;100.00;100176.81;10379929;28;20030;-72
2023/03/23 15:14:03;;;;;;;16.30;4.78;;;;;;;16.08;100.00;100165.00;10396553;28;20125;-72
2023/03/23 15:19:05;;;;;;;9.00;3.72;;;;;;;15.93;100.00;100152.78;10379617;28;20058;-74
2023/03/23 15:24:25;;;;;;;17.05;4.40;;;;;;;15.58;100.00;100151.13;10396034;28;20033;-72
2023/03/23 15:29:26;;;;;;;10.63;3.95;;;;;;;15.22;100.00;100159.78;10378322;28;20504;-73
2023/03/23 15:34:39;;;;;;;15.77;5.18;;;;;;;15.03;100.00;100159.22;10395513;28;20061;-73
2023/03/23 15:39:40;;;;;;;13.98;5.07;;;;;;;14.84;100.00;100153.97;10379204;28;20096;-73
2023/03/23 15:44:40;;;;;;;8.45;5.18;;;;;;;14.83;100.00;100151.47;10395009;28;20484;-73
2023/03/23 15:49:45;;;;;;;15.43;5.97;;;;;;;14.75;100.00;100141.78;10378489;28;20092;-73
2023/03/23 15:54:46;;;;;;;15.00;5.03;;;;;;;14.63;100.00;100150.00;10379629;28;20092;-73
2023/03/23 15:59:47;;;;;;;19.67;5.22;;;;;;;14.33;100.00;100152.09;10385097;28;20041;-72
2023/03/23 16:04:49;;;;;;;24.15;5.57;;;;;;;14.33;100.00;100149.38;10381570;28;20042;-74
2023/03/23 16:09:49;;;;;;;15.43;4.97;;;;;;;14.36;100.00;100157.88;10378471;28;20030;-72
2023/03/23 16:14:49;;;;;;;21.30;4.95;;;;;;;14.39;100.00;100165.56;10386963;28;20034;-73
2023/03/23 16:19:50;;;;;;;12.25;5.25;;;;;;;14.40;100.00;100169.13;10381282;28;20077;-73
2023/03/23 16:24:50;;;;;;;17.77;4.85;;;;;;;14.52;100.00;100159.06;10377363;28;20477;-73
2023/03/23 16:29:51;;;;;;;13.43;4.40;;;;;;;14.59;100.00;100145.28;10377608;28;20107;-73
2023/03/23 16:34:51;;;;;;;24.17;4.55;;;;;;;14.49;100.00;100151.34;10377841;28;20133;-73
2023/03/23 16:39:51;;;;;;;17.13;6.18;;;;;;;14.38;100.00;100154.91;10376134;28;20468;-73
2023/03/23 16:44:53;;;;;;;20.77;5.05;;;;;;;14.25;100.00;100157.91;10376620;28;20038;-73
2023/03/23 16:49:54;;;;;;;5.97;4.03;;;;;;;14.26;100.00;100148.66;10378725;28;20041;-74
2023/03/23 16:54:54;;;;;;;16.30;4.93;;;;;;;14.18;100.00;100153.41;10375775;28;20030;-73
2023/03/23 16:59:57;;;;;;;24.30;5.25;;;;;;;14.10;100.00;100145.63;10375419;28;20125;-73
2023/03/23 17:04:57;;;;;;;18.73;5.55;;;;;;;13.99;100.00;100124.69;10376646;28;20034;-73
2023/03/23 17:09:59;;;;;;;18.83;4.78;;;;;;;13.80;100.00;100123.16;10375458;28;20088;-73
2023/03/23 17:14:59;;;;;;;13.23;4.35;;;;;;;13.85;100.00;100115.13;10375577;28;20496;-74
2023/03/23 17:20:00;;;;;;;23.67;6.30;;;;;;;13.75;100.00;100112.97;10378947;28;20056;-73
2023/03/23 17:25:01;;;;;;;12.43;5.28;;;;;;;13.68;100.00;100102.22;10378335;28;20046;-74
2023/03/23 17:30:03;;;;;;;17.23;4.65;;;;;;;13.69;100.00;100093.00;10396166;28;20099;-74
2023/03/23 17:35:04;;;;;;;14.07;4.55;;;;;;;13.62;100.00;100097.72;10376661;28;20030;-74
2023/03/23 17:40:09;;;;;;;23.27;7.13;;;;;;;13.61;100.00;100104.25;10390872;28;20122;-72
2023/03/23 17:45:09;;;;;;;17.25;4.60;;;;;;;13.68;100.00;100099.50;10376922;28;20041;-74
2023/03/23 17:50:09;;;;;;;23.88;7.05;;;;;;;13.70;100.00;100091.94;10385234;28;20438;-72
2023/03/23 17:55:10;;;;;;;9.05;5.60;;;;;;;13.66;100.00;100095.38;10374943;28;20061;-73
2023/03/23 18:00:11;;;;;;;7.93;4.88;;;;;;;13.33;100.00;100080.47;10375415;28;20117;-75
2023/03/23 18:05:11;;;;;;;13.48;3.85;;;;;;;12.96;100.00;100072.50;10376168;28;20042;-73
2023/03/23 18:10:12;;;;;;;10.07;3.28;;;;;;;12.74;100.00;100071.38;10373424;28;20537;-74
2023/03/23 18:15:12;;;;;;;6.43;3.20;;;;;;;12.68;100.00;100081.25;10373318;28;20041;-78
2023/03/23 18:20:13;;;;;;;16.05;5.20;;;;;;;12.63;100.00;100085.72;10373201;28;20132;-78
2023/03/23 18:25:13;;;;;;;22.23;6.93;;;;;;;12.42;100.00;100073.50;10372606;28;20026;-80
2023/03/23 18:30:14;;;;;;;9.65;3.35;;;;;;;12.19;100.00;100055.19;10373989;28;20037;-80
2023/03/23 18:35:14;;;;;;;12.52;4.38;;;;;;;12.17;100.00;100054.63;10374014;28;20096;-79
2023/03/23 18:40:16;;;;;;;7.78;4.93;;;;;;;12.18;100.00;100061.69;10382102;28;20560;-79
2023/03/23 18:45:16;;;;;;;11.70;5.30;;;;;;;12.28;100.00;100062.84;10373684;28;20057;-77
2023/03/23 18:50:17;;;;;;;16.15;4.57;;;;;;;12.27;100.00;100054.91;10390000;28;20041;-80
2023/03/23 18:55:17;;;;;;;11.23;5.15;;;;;;;12.14;100.00;100038.78;10388991;28;20141;-79
2023/03/23 19:00:18;;;;;;;7.45;3.92;;;;;;;12.02;100.00;100025.97;10389068;28;20045;-82
2023/03/23 19:05:18;;;;;;;10.68;4.57;;;;;;;12.02;100.00;100041.44;10389144;28;20064;-79
2023/03/23 19:10:19;;;;;;;16.27;5.35;;;;;;;12.00;100.00;100035.44;10372216;28;20210;-75
2023/03/23 19:15:20;;;;;;;10.82;4.50;;;;;;;11.90;100.00;100021.56;10373624;28;20034;-76
2023/03/23 19:20:22;;;;;;;16.02;4.63;;;;;;;11.90;100.00;100016.13;10373684;28;20385;-76
2023/03/23 19:25:22;;;;;;;13.60;4.60;;;;;;;11.75;100.00;100003.75;10378049;28;20057;-76
2023/03/23 19:30:22;;;;;;;13.43;5.15;;;;;;;11.73;100.00;100003.16;10372898;28;20062;-77
2023/03/23 19:35:23;;;;;;;7.13;4.85;;;;;;;11.77;100.00;99989.97;10372904;28;20492;-77
2023/03/23 19:40:23;;;;;;;12.38;5.57;;;;;;;11.70;100.00;99992.75;10372313;28;20470;-77
2023/03/23 19:45:24;;;;;;;12.35;5.20;;;;;;;11.63;100.00;99984.69;10374835;28;20050;-76
2023/03/23 19:50:25;;;;;;;9.57;4.68;;;;;;;11.55;100.00;99986.88;10395819;28;20030;-76
2023/03/23 19:55:25;;;;;;;4.82;3.75;;;;;;;11.51;100.00;99977.56;10381131;28;20188;-74
2023/03/23 20:00:25;;;;;;;10.95;4.88;;;;;;;11.61;100.00;99978.69;10379338;28;20034;-75
2023/03/23 20:05:26;;;;;;;16.30;5.85;;;;;;;11.54;100.00;99966.25;10378594;28;20473;-74
2023/03/23 20:10:26;;;;;;;14.30;5.68;;;;;;;11.61;100.00;99965.13;10394624;28;20036;-76
2023/03/23 20:15:28;;;;;;;14.25;5.47;;;;;;;11.51;100.00;99964.81;10395049;28;20053;-75
2023/03/23 20:20:29;;;;;;;15.82;6.85;;;;;;;11.46;100.00;99948.41;10368681;28;20104;-77
2023/03/23 20:25:30;;;;;;;10.25;4.97;;;;;;;11.45;100.00;99937.78;10378999;28;20118;-77
2023/03/23 20:30:30;;;;;;;13.70;5.82;;;;;;;11.49;100.00;99930.88;10377253;28;20450;-74
2023/03/23 20:35:31;;;;;;;7.70;5.43;;;;;;;11.47;100.00;99919.41;10377988;28;20505;-74
2023/03/23 20:40:31;;;;;;;19.30;6.75;;;;;;;11.45;100.00;99902.53;10378722;28;20069;-75
2023/03/23 20:45:31;;;;;;;10.40;6.28;;;;;;;11.52;100.00;99896.00;10377998;28;20374;-75
2023/03/23 20:50:32;;;;;;;17.73;5.80;;;;;;;11.56;100.00;99889.06;10376644;28;20132;-75
2023/03/23 20:55:33;;;;;;;13.07;6.22;;;;;;;11.53;100.00;99888.69;10377088;28;20125;-75
2023/03/23 21:00:33;;;;;;;10.10;6.32;;;;;;;11.58;100.00;99873.41;10383959;28;20038;-75
2023/03/23 21:05:34;;;;;;;10.48;5.40;;;;;;;11.57;100.00;99884.47;10395581;28;20037;-74
2023/03/23 21:10:35;;;;;;;10.32;6.32;;;;;;;11.61;100.00;99880.22;10378712;28;20130;-75
2023/03/23 21:15:35;;;;;;;12.10;5.63;;;;;;;11.50;100.00;99873.69;10376649;28;20034;-74
2023/03/23 21:20:36;;;;;;;8.30;5.60;;;;;;;11.55;100.00;99873.84;10374573;28;20469;-76
2023/03/23 21:25:36;;;;;;;20.98;5.75;;;;;;;11.56;100.00;99866.53;10376732;28;20116;-76
2023/03/23 21:30:40;;;;;;;18.88;5.68;;;;;;;11.38;100.00;99854.66;10375956;28;20521;-75
2023/03/23 21:35:41;;;;;;;7.50;4.60;;;;;;;11.34;100.00;99845.34;10375433;28;20041;-76
2023/03/23 21:40:41;;;;;;;14.63;4.70;;;;;;;11.32;100.00;99827.66;10374633;28;20038;-75
2023/03/23 21:45:42;;;;;;;10.13;5.40;;;;;;;11.20;100.00;99843.00;10376001;28;20393;-76
2023/03/23 21:50:42;;;;;;;8.25;4.50;;;;;;;11.22;100.00;99828.19;10375818;28;20096;-78
2023/03/23 21:55:49;;;;;;;18.30;6.20;;;;;;;11.20;100.00;99816.78;10389653;28;20034;-74
2023/03/23 22:00:52;;;;;;;14.20;5.68;;;;;;;11.16;100.00;99802.81;10375207;28;20030;-73
2023/03/23 22:05:53;;;;;;;12.98;5.22;;;;;;;11.08;100.00;99802.34;10390389;28;20502;-72
2023/03/23 22:11:05;;;;;;;16.63;4.63;;;;;;;11.06;100.00;99793.59;10374840;28;20034;-72
2023/03/23 22:16:09;;;;;;;7.00;4.60;;;;;;;10.95;100.00;99773.53;10373223;28;20454;-73
2023/03/23 22:21:10;;;;;;;5.10;4.53;;;;;;;10.93;100.00;99756.66;10391440;28;20077;-73
2023/03/23 22:26:11;;;;;;;7.03;4.30;;;;;;;10.88;100.00;99757.34;10389892;28;20056;-73
2023/03/23 22:31:22;;;;;;;7.90;4.55;;;;;;;10.85;100.00;99749.69;10360346;28;20037;-73
2023/03/23 22:36:24;;;;;;;22.00;4.45;;;;;;;10.81;100.00;99739.53;10373645;28;20397;-72
2023/03/23 22:41:27;;;;;;;8.52;4.28;;;;;;;10.80;100.00;99717.03;10389561;28;20029;-74
2023/03/23 22:46:27;;;;;;;4.40;3.95;;;;;;;10.77;100.00;99713.97;10356296;28;20069;-73
2023/03/23 22:51:28;;;;;;;11.65;4.43;;;;;;;10.82;100.00;99704.09;10389615;28;20072;-73
2023/03/23 22:56:29;;;;;;;10.68;4.68;;;;;;;10.82;100.00;99703.28;10373889;28;20354;-74